sensor_id;sensor_type;location;lat;lon;timestamp;P1;durP1;ratioP1;P2;durP2;ratioP2
55134;SDS011;41031;44.750;11.308;2022-10-16T00:01:31;39.63;;;27.30;;
55134;SDS011;41031;44.750;11.308;2022-10-16T00:03:58;41.57;;;30.23;;
55134;SDS011;41031;44.750;11.308;2022-10-16T00:06:27;39.53;;;30.00;;
55134;SDS011;41031;44.750;11.308;2022-10-16T00:08:54;37.73;;;28.87;;
55134;SDS011;41031;44.750;11.308;2022-10-16T00:11:23;42.77;;;30.87;;
55134;SDS011;41031;44.750;11.308;2022-10-16T00:13:55;42.17;;;32.50;;
55134;SDS011;41031;44.750;11.308;2022-10-16T00:16:25;43.57;;;31.43;;
55134;SDS011;41031;44.750;11.308;2022-10-16T00:18:53;40.67;;;30.60;;
55134;SDS011;41031;44.750;11.308;2022-10-16T00:21:22;42.87;;;31.63;;
55134;SDS011;41031;44.750;11.308;2022-10-16T00:23:53;41.67;;;30.87;;
55134;SDS011;41031;44.750;11.308;2022-10-16T00:26:21;44.43;;;32.40;;
55134;SDS011;41031;44.750;11.308;2022-10-16T00:28:49;48.47;;;32.00;;
55134;SDS011;41031;44.750;11.308;2022-10-16T00:31:18;41.67;;;31.47;;
55134;SDS011;41031;44.750;11.308;2022-10-16T00:33:46;48.80;;;32.83;;
55134;SDS011;41031;44.750;11.308;2022-10-16T00:36:16;47.10;;;33.13;;
55134;SDS011;41031;44.750;11.308;2022-10-16T00:38:46;45.87;;;31.80;;
55134;SDS011;41031;44.750;11.308;2022-10-16T00:41:16;42.30;;;30.40;;
55134;SDS011;41031;44.750;11.308;2022-10-16T00:46:22;47.20;;;31.30;;
55134;SDS011;41031;44.750;11.308;2022-10-16T00:49:16;44.23;;;29.63;;
55134;SDS011;41031;44.750;11.308;2022-10-16T00:51:46;40.03;;;29.87;;
55134;SDS011;41031;44.750;11.308;2022-10-16T00:54:17;45.30;;;31.50;;
55134;SDS011;41031;44.750;11.308;2022-10-16T00:56:47;44.50;;;31.10;;
55134;SDS011;41031;44.750;11.308;2022-10-16T00:59:19;43.77;;;30.57;;
55134;SDS011;41031;44.750;11.308;2022-10-16T01:01:57;42.30;;;31.40;;
55134;SDS011;41031;44.750;11.308;2022-10-16T01:04:25;47.17;;;31.67;;
55134;SDS011;41031;44.750;11.308;2022-10-16T01:07:06;43.30;;;31.70;;
55134;SDS011;41031;44.750;11.308;2022-10-16T01:15:29;46.13;;;31.87;;
55134;SDS011;41031;44.750;11.308;2022-10-16T01:21:10;40.13;;;29.73;;
55134;SDS011;41031;44.750;11.308;2022-10-16T01:28:41;45.77;;;33.10;;
55134;SDS011;41031;44.750;11.308;2022-10-16T01:31:18;48.77;;;33.43;;
55134;SDS011;41031;44.750;11.308;2022-10-16T01:33:51;49.10;;;32.90;;
55134;SDS011;41031;44.750;11.308;2022-10-16T01:36:31;52.03;;;31.87;;
55134;SDS011;41031;44.750;11.308;2022-10-16T01:39:04;51.43;;;32.77;;
55134;SDS011;41031;44.750;11.308;2022-10-16T01:41:37;57.40;;;32.00;;
55134;SDS011;41031;44.750;11.308;2022-10-16T01:44:08;45.87;;;33.47;;
55134;SDS011;41031;44.750;11.308;2022-10-16T01:46:42;48.53;;;33.57;;
55134;SDS011;41031;44.750;11.308;2022-10-16T01:49:12;46.97;;;33.10;;
55134;SDS011;41031;44.750;11.308;2022-10-16T01:51:41;49.13;;;33.93;;
55134;SDS011;41031;44.750;11.308;2022-10-16T01:54:12;45.63;;;32.13;;
55134;SDS011;41031;44.750;11.308;2022-10-16T01:56:42;44.30;;;30.83;;
55134;SDS011;41031;44.750;11.308;2022-10-16T01:59:11;46.77;;;31.83;;
55134;SDS011;41031;44.750;11.308;2022-10-16T02:01:43;48.07;;;31.80;;
55134;SDS011;41031;44.750;11.308;2022-10-16T02:04:14;44.43;;;32.00;;
55134;SDS011;41031;44.750;11.308;2022-10-16T02:06:48;43.00;;;31.83;;
55134;SDS011;41031;44.750;11.308;2022-10-16T02:09:16;47.47;;;30.27;;
55134;SDS011;41031;44.750;11.308;2022-10-16T02:11:43;43.50;;;30.57;;
55134;SDS011;41031;44.750;11.308;2022-10-16T02:14:10;44.10;;;31.33;;
55134;SDS011;41031;44.750;11.308;2022-10-16T02:16:39;43.70;;;30.60;;
55134;SDS011;41031;44.750;11.308;2022-10-16T02:19:11;42.13;;;29.77;;
55134;SDS011;41031;44.750;11.308;2022-10-16T02:21:42;48.70;;;32.50;;
55134;SDS011;41031;44.750;11.308;2022-10-16T02:24:32;44.57;;;31.20;;
55134;SDS011;41031;44.750;11.308;2022-10-16T02:27:07;43.17;;;30.73;;
55134;SDS011;41031;44.750;11.308;2022-10-16T02:29:44;44.17;;;30.40;;
55134;SDS011;41031;44.750;11.308;2022-10-16T02:32:17;39.00;;;27.67;;
55134;SDS011;41031;44.750;11.308;2022-10-16T02:34:48;41.93;;;28.37;;
55134;SDS011;41031;44.750;11.308;2022-10-16T02:37:17;40.73;;;29.60;;
55134;SDS011;41031;44.750;11.308;2022-10-16T02:39:45;39.83;;;28.60;;
55134;SDS011;41031;44.750;11.308;2022-10-16T02:42:12;40.73;;;29.37;;
55134;SDS011;41031;44.750;11.308;2022-10-16T02:44:40;36.60;;;28.30;;
55134;SDS011;41031;44.750;11.308;2022-10-16T02:47:07;37.17;;;27.27;;
55134;SDS011;41031;44.750;11.308;2022-10-16T02:49:35;40.07;;;28.80;;
55134;SDS011;41031;44.750;11.308;2022-10-16T02:52:02;39.10;;;28.27;;
55134;SDS011;41031;44.750;11.308;2022-10-16T02:54:29;38.37;;;29.60;;
55134;SDS011;41031;44.750;11.308;2022-10-16T02:56:56;41.00;;;29.43;;
55134;SDS011;41031;44.750;11.308;2022-10-16T02:59:23;39.40;;;29.93;;
55134;SDS011;41031;44.750;11.308;2022-10-16T03:01:50;37.53;;;28.47;;
55134;SDS011;41031;44.750;11.308;2022-10-16T03:04:17;43.10;;;31.70;;
55134;SDS011;41031;44.750;11.308;2022-10-16T03:06:44;44.50;;;29.53;;
55134;SDS011;41031;44.750;11.308;2022-10-16T03:09:11;42.97;;;32.47;;
55134;SDS011;41031;44.750;11.308;2022-10-16T03:11:38;43.20;;;30.37;;
55134;SDS011;41031;44.750;11.308;2022-10-16T03:14:05;42.37;;;30.63;;
55134;SDS011;41031;44.750;11.308;2022-10-16T03:16:33;44.60;;;30.90;;
55134;SDS011;41031;44.750;11.308;2022-10-16T03:19:00;45.63;;;33.17;;
55134;SDS011;41031;44.750;11.308;2022-10-16T03:21:27;46.87;;;32.50;;
55134;SDS011;41031;44.750;11.308;2022-10-16T03:23:54;44.63;;;31.87;;
55134;SDS011;41031;44.750;11.308;2022-10-16T03:26:21;42.50;;;31.13;;
55134;SDS011;41031;44.750;11.308;2022-10-16T03:28:48;48.53;;;33.27;;
55134;SDS011;41031;44.750;11.308;2022-10-16T03:31:15;52.33;;;33.97;;
55134;SDS011;41031;44.750;11.308;2022-10-16T03:33:42;44.60;;;30.53;;
55134;SDS011;41031;44.750;11.308;2022-10-16T03:36:09;49.17;;;32.23;;
55134;SDS011;41031;44.750;11.308;2022-10-16T03:38:36;50.87;;;34.20;;
55134;SDS011;41031;44.750;11.308;2022-10-16T03:41:03;49.43;;;34.50;;
55134;SDS011;41031;44.750;11.308;2022-10-16T03:43:30;52.07;;;34.97;;
55134;SDS011;41031;44.750;11.308;2022-10-16T03:45:57;52.87;;;34.20;;
55134;SDS011;41031;44.750;11.308;2022-10-16T03:48:24;50.87;;;33.53;;
55134;SDS011;41031;44.750;11.308;2022-10-16T03:50:51;48.23;;;31.87;;
55134;SDS011;41031;44.750;11.308;2022-10-16T03:53:18;46.40;;;30.70;;
55134;SDS011;41031;44.750;11.308;2022-10-16T03:55:45;44.30;;;32.50;;
55134;SDS011;41031;44.750;11.308;2022-10-16T03:58:12;44.60;;;31.57;;
55134;SDS011;41031;44.750;11.308;2022-10-16T04:00:40;46.23;;;31.10;;
55134;SDS011;41031;44.750;11.308;2022-10-16T04:03:11;44.40;;;31.87;;
55134;SDS011;41031;44.750;11.308;2022-10-16T04:05:38;48.97;;;32.07;;
55134;SDS011;41031;44.750;11.308;2022-10-16T04:08:06;44.63;;;32.73;;
55134;SDS011;41031;44.750;11.308;2022-10-16T04:10:33;46.40;;;32.70;;
55134;SDS011;41031;44.750;11.308;2022-10-16T04:13:00;45.03;;;30.63;;
55134;SDS011;41031;44.750;11.308;2022-10-16T04:15:27;50.30;;;31.53;;
55134;SDS011;41031;44.750;11.308;2022-10-16T04:17:54;51.03;;;32.77;;
55134;SDS011;41031;44.750;11.308;2022-10-16T04:20:21;45.50;;;32.27;;
55134;SDS011;41031;44.750;11.308;2022-10-16T04:22:48;45.10;;;30.57;;
55134;SDS011;41031;44.750;11.308;2022-10-16T04:25:15;46.23;;;31.13;;
55134;SDS011;41031;44.750;11.308;2022-10-16T04:27:42;45.63;;;32.10;;
55134;SDS011;41031;44.750;11.308;2022-10-16T04:30:11;43.00;;;30.20;;
55134;SDS011;41031;44.750;11.308;2022-10-16T04:32:39;42.70;;;29.97;;
55134;SDS011;41031;44.750;11.308;2022-10-16T04:35:07;40.80;;;30.23;;
55134;SDS011;41031;44.750;11.308;2022-10-16T04:37:34;47.23;;;29.37;;
55134;SDS011;41031;44.750;11.308;2022-10-16T04:40:01;45.87;;;32.87;;
55134;SDS011;41031;44.750;11.308;2022-10-16T04:42:28;43.57;;;29.80;;
55134;SDS011;41031;44.750;11.308;2022-10-16T04:44:55;40.67;;;28.77;;
55134;SDS011;41031;44.750;11.308;2022-10-16T04:47:22;40.97;;;29.83;;
55134;SDS011;41031;44.750;11.308;2022-10-16T04:49:50;40.07;;;28.90;;
55134;SDS011;41031;44.750;11.308;2022-10-16T04:52:17;44.57;;;29.27;;
55134;SDS011;41031;44.750;11.308;2022-10-16T04:54:45;42.73;;;29.73;;
55134;SDS011;41031;44.750;11.308;2022-10-16T04:57:12;46.37;;;30.50;;
55134;SDS011;41031;44.750;11.308;2022-10-16T04:59:39;40.30;;;29.13;;
55134;SDS011;41031;44.750;11.308;2022-10-16T05:02:06;36.77;;;27.63;;
55134;SDS011;41031;44.750;11.308;2022-10-16T05:04:33;38.40;;;28.67;;
55134;SDS011;41031;44.750;11.308;2022-10-16T05:07:00;43.73;;;29.40;;
55134;SDS011;41031;44.750;11.308;2022-10-16T05:09:27;38.37;;;27.93;;
55134;SDS011;41031;44.750;11.308;2022-10-16T05:11:54;37.03;;;27.07;;
55134;SDS011;41031;44.750;11.308;2022-10-16T05:14:21;37.47;;;26.07;;
55134;SDS011;41031;44.750;11.308;2022-10-16T05:16:48;35.93;;;26.30;;
55134;SDS011;41031;44.750;11.308;2022-10-16T05:19:15;36.33;;;25.53;;
55134;SDS011;41031;44.750;11.308;2022-10-16T05:21:57;36.47;;;25.17;;
55134;SDS011;41031;44.750;11.308;2022-10-16T05:24:25;39.13;;;27.70;;
55134;SDS011;41031;44.750;11.308;2022-10-16T05:26:52;42.87;;;28.50;;
55134;SDS011;41031;44.750;11.308;2022-10-16T05:29:19;38.53;;;28.80;;
55134;SDS011;41031;44.750;11.308;2022-10-16T05:31:46;42.13;;;28.10;;
55134;SDS011;41031;44.750;11.308;2022-10-16T05:34:17;39.27;;;24.90;;
55134;SDS011;41031;44.750;11.308;2022-10-16T05:36:43;39.23;;;27.73;;
55134;SDS011;41031;44.750;11.308;2022-10-16T05:39:11;37.37;;;26.47;;
55134;SDS011;41031;44.750;11.308;2022-10-16T05:41:40;40.03;;;27.67;;
55134;SDS011;41031;44.750;11.308;2022-10-16T05:44:07;42.17;;;27.40;;
55134;SDS011;41031;44.750;11.308;2022-10-16T05:46:34;37.20;;;26.33;;
55134;SDS011;41031;44.750;11.308;2022-10-16T05:49:01;39.53;;;26.77;;
55134;SDS011;41031;44.750;11.308;2022-10-16T05:51:29;41.13;;;26.43;;
55134;SDS011;41031;44.750;11.308;2022-10-16T05:53:56;37.00;;;26.93;;
55134;SDS011;41031;44.750;11.308;2022-10-16T05:56:23;39.67;;;27.10;;
55134;SDS011;41031;44.750;11.308;2022-10-16T05:58:50;38.83;;;27.17;;
55134;SDS011;41031;44.750;11.308;2022-10-16T06:01:18;38.80;;;26.57;;
55134;SDS011;41031;44.750;11.308;2022-10-16T06:03:47;39.30;;;28.60;;
55134;SDS011;41031;44.750;11.308;2022-10-16T06:06:15;38.07;;;27.97;;
55134;SDS011;41031;44.750;11.308;2022-10-16T06:08:47;35.67;;;26.43;;
55134;SDS011;41031;44.750;11.308;2022-10-16T06:11:19;37.17;;;27.10;;
55134;SDS011;41031;44.750;11.308;2022-10-16T06:13:49;40.63;;;27.97;;
55134;SDS011;41031;44.750;11.308;2022-10-16T06:16:17;36.93;;;26.03;;
55134;SDS011;41031;44.750;11.308;2022-10-16T06:18:46;40.87;;;27.37;;
55134;SDS011;41031;44.750;11.308;2022-10-16T06:21:16;41.40;;;27.60;;
55134;SDS011;41031;44.750;11.308;2022-10-16T06:23:45;41.17;;;26.30;;
55134;SDS011;41031;44.750;11.308;2022-10-16T06:26:13;36.20;;;26.37;;
55134;SDS011;41031;44.750;11.308;2022-10-16T06:28:45;38.47;;;27.17;;
55134;SDS011;41031;44.750;11.308;2022-10-16T06:31:13;36.93;;;26.87;;
55134;SDS011;41031;44.750;11.308;2022-10-16T06:33:40;39.13;;;27.30;;
55134;SDS011;41031;44.750;11.308;2022-10-16T06:36:12;38.40;;;27.70;;
55134;SDS011;41031;44.750;11.308;2022-10-16T06:38:42;38.90;;;27.40;;
55134;SDS011;41031;44.750;11.308;2022-10-16T06:41:11;38.77;;;25.57;;
55134;SDS011;41031;44.750;11.308;2022-10-16T06:43:40;30.37;;;24.17;;
55134;SDS011;41031;44.750;11.308;2022-10-16T06:46:09;30.90;;;24.30;;
55134;SDS011;41031;44.750;11.308;2022-10-16T06:48:37;34.37;;;23.20;;
55134;SDS011;41031;44.750;11.308;2022-10-16T06:51:05;34.57;;;24.03;;
55134;SDS011;41031;44.750;11.308;2022-10-16T06:53:34;36.30;;;25.53;;
55134;SDS011;41031;44.750;11.308;2022-10-16T06:56:18;30.83;;;22.50;;
55134;SDS011;41031;44.750;11.308;2022-10-16T06:58:47;29.50;;;21.73;;
55134;SDS011;41031;44.750;11.308;2022-10-16T07:01:15;34.67;;;20.53;;
55134;SDS011;41031;44.750;11.308;2022-10-16T07:03:44;29.13;;;20.83;;
55134;SDS011;41031;44.750;11.308;2022-10-16T07:06:17;25.80;;;20.40;;
55134;SDS011;41031;44.750;11.308;2022-10-16T07:08:46;27.47;;;19.00;;
55134;SDS011;41031;44.750;11.308;2022-10-16T07:11:14;26.70;;;19.73;;
55134;SDS011;41031;44.750;11.308;2022-10-16T07:13:43;25.00;;;18.83;;
55134;SDS011;41031;44.750;11.308;2022-10-16T07:16:21;21.63;;;17.87;;
55134;SDS011;41031;44.750;11.308;2022-10-16T07:18:53;24.23;;;17.77;;
55134;SDS011;41031;44.750;11.308;2022-10-16T07:21:26;22.50;;;17.47;;
55134;SDS011;41031;44.750;11.308;2022-10-16T07:23:59;22.17;;;19.30;;
55134;SDS011;41031;44.750;11.308;2022-10-16T07:26:29;25.23;;;18.60;;
55134;SDS011;41031;44.750;11.308;2022-10-16T07:28:57;23.30;;;18.30;;
55134;SDS011;41031;44.750;11.308;2022-10-16T07:31:25;22.83;;;19.23;;
55134;SDS011;41031;44.750;11.308;2022-10-16T07:33:52;22.10;;;19.03;;
55134;SDS011;41031;44.750;11.308;2022-10-16T07:36:20;28.97;;;18.93;;
55134;SDS011;41031;44.750;11.308;2022-10-16T07:38:47;27.13;;;19.80;;
55134;SDS011;41031;44.750;11.308;2022-10-16T07:41:18;24.77;;;20.73;;
55134;SDS011;41031;44.750;11.308;2022-10-16T07:43:47;27.20;;;20.57;;
55134;SDS011;41031;44.750;11.308;2022-10-16T07:46:19;31.03;;;22.97;;
55134;SDS011;41031;44.750;11.308;2022-10-16T07:48:47;28.63;;;23.13;;
55134;SDS011;41031;44.750;11.308;2022-10-16T07:51:16;27.07;;;21.17;;
55134;SDS011;41031;44.750;11.308;2022-10-16T07:53:45;28.20;;;22.97;;
55134;SDS011;41031;44.750;11.308;2022-10-16T07:56:13;33.53;;;25.33;;
55134;SDS011;41031;44.750;11.308;2022-10-16T07:58:41;34.93;;;25.67;;
55134;SDS011;41031;44.750;11.308;2022-10-16T08:01:10;32.30;;;24.23;;
55134;SDS011;41031;44.750;11.308;2022-10-16T08:03:46;32.80;;;25.47;;
55134;SDS011;41031;44.750;11.308;2022-10-16T08:06:15;34.00;;;25.67;;
55134;SDS011;41031;44.750;11.308;2022-10-16T08:08:47;42.00;;;26.87;;
55134;SDS011;41031;44.750;11.308;2022-10-16T08:11:14;35.00;;;26.87;;
55134;SDS011;41031;44.750;11.308;2022-10-16T08:13:41;38.10;;;29.97;;
55134;SDS011;41031;44.750;11.308;2022-10-16T08:16:08;34.47;;;27.07;;
55134;SDS011;41031;44.750;11.308;2022-10-16T08:18:39;35.60;;;26.97;;
55134;SDS011;41031;44.750;11.308;2022-10-16T08:21:07;38.07;;;28.53;;
55134;SDS011;41031;44.750;11.308;2022-10-16T08:23:46;38.23;;;28.80;;
55134;SDS011;41031;44.750;11.308;2022-10-16T08:26:22;41.90;;;29.83;;
55134;SDS011;41031;44.750;11.308;2022-10-16T08:28:49;38.00;;;28.23;;
55134;SDS011;41031;44.750;11.308;2022-10-16T08:31:18;39.63;;;28.50;;
55134;SDS011;41031;44.750;11.308;2022-10-16T08:33:45;40.17;;;28.90;;
55134;SDS011;41031;44.750;11.308;2022-10-16T08:36:14;40.03;;;30.77;;
55134;SDS011;41031;44.750;11.308;2022-10-16T08:38:42;39.70;;;31.43;;
55134;SDS011;41031;44.750;11.308;2022-10-16T08:48:52;44.53;;;30.23;;
55134;SDS011;41031;44.750;11.308;2022-10-16T08:53:56;43.60;;;32.30;;
55134;SDS011;41031;44.750;11.308;2022-10-16T08:56:31;42.13;;;31.23;;
55134;SDS011;41031;44.750;11.308;2022-10-16T08:58:59;43.60;;;32.03;;
55134;SDS011;41031;44.750;11.308;2022-10-16T09:01:38;44.10;;;31.63;;
55134;SDS011;41031;44.750;11.308;2022-10-16T09:04:52;43.97;;;31.67;;
55134;SDS011;41031;44.750;11.308;2022-10-16T09:21:34;51.97;;;35.00;;
55134;SDS011;41031;44.750;11.308;2022-10-16T09:24:12;43.33;;;32.47;;
55134;SDS011;41031;44.750;11.308;2022-10-16T09:26:41;48.73;;;34.03;;
55134;SDS011;41031;44.750;11.308;2022-10-16T09:29:11;38.13;;;31.00;;
55134;SDS011;41031;44.750;11.308;2022-10-16T09:31:42;43.63;;;31.90;;
55134;SDS011;41031;44.750;11.308;2022-10-16T09:34:22;39.27;;;31.27;;
55134;SDS011;41031;44.750;11.308;2022-10-16T09:37:04;39.87;;;31.10;;
55134;SDS011;41031;44.750;11.308;2022-10-16T09:39:49;39.30;;;30.03;;
55134;SDS011;41031;44.750;11.308;2022-10-16T09:42:26;40.00;;;32.00;;
55134;SDS011;41031;44.750;11.308;2022-10-16T09:44:57;45.33;;;31.13;;
55134;SDS011;41031;44.750;11.308;2022-10-16T09:47:28;52.83;;;33.17;;
55134;SDS011;41031;44.750;11.308;2022-10-16T09:49:57;44.87;;;33.10;;
55134;SDS011;41031;44.750;11.308;2022-10-16T09:52:28;48.40;;;31.70;;
55134;SDS011;41031;44.750;11.308;2022-10-16T09:54:57;41.97;;;31.23;;
55134;SDS011;41031;44.750;11.308;2022-10-16T09:57:26;40.63;;;30.50;;
55134;SDS011;41031;44.750;11.308;2022-10-16T09:59:55;40.57;;;29.17;;
55134;SDS011;41031;44.750;11.308;2022-10-16T10:02:30;41.40;;;31.27;;
55134;SDS011;41031;44.750;11.308;2022-10-16T10:05:02;37.47;;;30.10;;
55134;SDS011;41031;44.750;11.308;2022-10-16T10:07:37;39.43;;;29.00;;
55134;SDS011;41031;44.750;11.308;2022-10-16T10:10:31;40.03;;;29.33;;
55134;SDS011;41031;44.750;11.308;2022-10-16T10:12:59;34.67;;;28.90;;
55134;SDS011;41031;44.750;11.308;2022-10-16T10:15:28;42.40;;;29.00;;
55134;SDS011;41031;44.750;11.308;2022-10-16T10:17:59;36.37;;;28.20;;
55134;SDS011;41031;44.750;11.308;2022-10-16T10:20:35;36.50;;;27.70;;
55134;SDS011;41031;44.750;11.308;2022-10-16T10:23:21;33.67;;;26.07;;
55134;SDS011;41031;44.750;11.308;2022-10-16T10:28:39;33.37;;;26.30;;
55134;SDS011;41031;44.750;11.308;2022-10-16T10:31:47;33.13;;;26.47;;
55134;SDS011;41031;44.750;11.308;2022-10-16T10:39:57;34.53;;;25.27;;
55134;SDS011;41031;44.750;11.308;2022-10-16T10:43:04;34.10;;;23.80;;
55134;SDS011;41031;44.750;11.308;2022-10-16T10:46:07;27.17;;;23.00;;
55134;SDS011;41031;44.750;11.308;2022-10-16T11:02:21;26.07;;;18.63;;
55134;SDS011;41031;44.750;11.308;2022-10-16T11:07:52;25.33;;;20.30;;
55134;SDS011;41031;44.750;11.308;2022-10-16T11:10:30;30.30;;;20.07;;
55134;SDS011;41031;44.750;11.308;2022-10-16T11:13:20;29.40;;;20.20;;
55134;SDS011;41031;44.750;11.308;2022-10-16T11:15:48;22.87;;;17.17;;
55134;SDS011;41031;44.750;11.308;2022-10-16T11:18:23;22.20;;;15.83;;
55134;SDS011;41031;44.750;11.308;2022-10-16T11:21:02;23.67;;;17.73;;
55134;SDS011;41031;44.750;11.308;2022-10-16T11:26:19;21.13;;;17.10;;
55134;SDS011;41031;44.750;11.308;2022-10-16T11:28:53;19.33;;;16.27;;
55134;SDS011;41031;44.750;11.308;2022-10-16T11:31:24;27.27;;;19.47;;
55134;SDS011;41031;44.750;11.308;2022-10-16T11:36:58;23.20;;;18.40;;
55134;SDS011;41031;44.750;11.308;2022-10-16T11:39:41;24.00;;;18.37;;
55134;SDS011;41031;44.750;11.308;2022-10-16T11:42:11;25.30;;;18.00;;
55134;SDS011;41031;44.750;11.308;2022-10-16T11:47:41;20.10;;;15.00;;
55134;SDS011;41031;44.750;11.308;2022-10-16T11:50:26;22.57;;;16.67;;
55134;SDS011;41031;44.750;11.308;2022-10-16T11:53:18;17.47;;;13.97;;
55134;SDS011;41031;44.750;11.308;2022-10-16T11:56:07;22.73;;;16.20;;
55134;SDS011;41031;44.750;11.308;2022-10-16T11:58:41;22.33;;;16.43;;
55134;SDS011;41031;44.750;11.308;2022-10-16T12:01:20;22.87;;;14.60;;
55134;SDS011;41031;44.750;11.308;2022-10-16T12:04:02;20.67;;;15.57;;
55134;SDS011;41031;44.750;11.308;2022-10-16T12:10:38;17.20;;;14.47;;
55134;SDS011;41031;44.750;11.308;2022-10-16T12:13:05;18.63;;;13.43;;
55134;SDS011;41031;44.750;11.308;2022-10-16T12:15:50;14.83;;;12.33;;
55134;SDS011;41031;44.750;11.308;2022-10-16T12:18:25;19.83;;;12.63;;
55134;SDS011;41031;44.750;11.308;2022-10-16T12:20:58;16.10;;;12.77;;
55134;SDS011;41031;44.750;11.308;2022-10-16T12:23:32;20.60;;;13.60;;
55134;SDS011;41031;44.750;11.308;2022-10-16T12:26:29;17.73;;;12.63;;
55134;SDS011;41031;44.750;11.308;2022-10-16T12:29:12;19.53;;;13.47;;
55134;SDS011;41031;44.750;11.308;2022-10-16T12:31:44;15.53;;;12.23;;
55134;SDS011;41031;44.750;11.308;2022-10-16T12:34:29;18.60;;;13.70;;
55134;SDS011;41031;44.750;11.308;2022-10-16T12:37:08;12.83;;;10.80;;
55134;SDS011;41031;44.750;11.308;2022-10-16T12:39:53;18.93;;;12.13;;
55134;SDS011;41031;44.750;11.308;2022-10-16T12:44:56;13.20;;;11.47;;
55134;SDS011;41031;44.750;11.308;2022-10-16T12:49:57;17.97;;;10.90;;
55134;SDS011;41031;44.750;11.308;2022-10-16T12:55:00;12.33;;;9.37;;
55134;SDS011;41031;44.750;11.308;2022-10-16T13:21:49;9.20;;;7.63;;
55134;SDS011;41031;44.750;11.308;2022-10-16T13:24:42;13.30;;;9.13;;
55134;SDS011;41031;44.750;11.308;2022-10-16T13:30:24;11.30;;;9.80;;
55134;SDS011;41031;44.750;11.308;2022-10-16T13:36:02;11.20;;;8.90;;
55134;SDS011;41031;44.750;11.308;2022-10-16T13:38:31;9.77;;;7.87;;
55134;SDS011;41031;44.750;11.308;2022-10-16T13:41:03;11.20;;;8.20;;
55134;SDS011;41031;44.750;11.308;2022-10-16T13:43:42;13.30;;;9.57;;
55134;SDS011;41031;44.750;11.308;2022-10-16T13:46:18;12.03;;;9.50;;
55134;SDS011;41031;44.750;11.308;2022-10-16T13:49:00;15.20;;;9.00;;
55134;SDS011;41031;44.750;11.308;2022-10-16T13:51:56;11.87;;;8.93;;
55134;SDS011;41031;44.750;11.308;2022-10-16T13:54:26;10.80;;;8.87;;
55134;SDS011;41031;44.750;11.308;2022-10-16T13:56:55;8.90;;;8.00;;
55134;SDS011;41031;44.750;11.308;2022-10-16T13:59:35;11.00;;;8.50;;
55134;SDS011;41031;44.750;11.308;2022-10-16T14:02:27;8.90;;;8.00;;
55134;SDS011;41031;44.750;11.308;2022-10-16T14:05:03;7.80;;;7.00;;
55134;SDS011;41031;44.750;11.308;2022-10-16T14:07:35;9.10;;;7.47;;
55134;SDS011;41031;44.750;11.308;2022-10-16T14:10:04;11.00;;;7.10;;
55134;SDS011;41031;44.750;11.308;2022-10-16T14:12:56;15.87;;;8.73;;
55134;SDS011;41031;44.750;11.308;2022-10-16T14:15:27;11.67;;;7.60;;
55134;SDS011;41031;44.750;11.308;2022-10-16T14:18:00;13.87;;;7.60;;
55134;SDS011;41031;44.750;11.308;2022-10-16T14:20:29;11.27;;;7.17;;
55134;SDS011;41031;44.750;11.308;2022-10-16T14:23:02;10.33;;;8.13;;
55134;SDS011;41031;44.750;11.308;2022-10-16T14:25:31;13.00;;;7.77;;
55134;SDS011;41031;44.750;11.308;2022-10-16T14:30:29;12.73;;;8.10;;
55134;SDS011;41031;44.750;11.308;2022-10-16T14:33:02;9.27;;;7.40;;
55134;SDS011;41031;44.750;11.308;2022-10-16T14:35:32;9.53;;;7.70;;
55134;SDS011;41031;44.750;11.308;2022-10-16T14:38:02;12.20;;;8.73;;
55134;SDS011;41031;44.750;11.308;2022-10-16T14:40:32;12.23;;;8.43;;
55134;SDS011;41031;44.750;11.308;2022-10-16T14:43:01;10.13;;;7.63;;
55134;SDS011;41031;44.750;11.308;2022-10-16T14:45:30;9.60;;;7.90;;
55134;SDS011;41031;44.750;11.308;2022-10-16T14:48:01;8.13;;;7.23;;
55134;SDS011;41031;44.750;11.308;2022-10-16T14:50:32;9.53;;;8.00;;
55134;SDS011;41031;44.750;11.308;2022-10-16T14:53:00;8.00;;;7.00;;
55134;SDS011;41031;44.750;11.308;2022-10-16T14:55:27;12.47;;;7.73;;
55134;SDS011;41031;44.750;11.308;2022-10-16T14:57:54;10.33;;;7.80;;
55134;SDS011;41031;44.750;11.308;2022-10-16T15:00:26;8.07;;;6.97;;
55134;SDS011;41031;44.750;11.308;2022-10-16T15:02:53;8.07;;;6.97;;
55134;SDS011;41031;44.750;11.308;2022-10-16T15:05:24;8.63;;;6.87;;
55134;SDS011;41031;44.750;11.308;2022-10-16T15:07:53;9.53;;;6.93;;
55134;SDS011;41031;44.750;11.308;2022-10-16T15:10:22;9.67;;;7.13;;
55134;SDS011;41031;44.750;11.308;2022-10-16T15:12:51;11.67;;;7.23;;
55134;SDS011;41031;44.750;11.308;2022-10-16T15:15:37;9.20;;;7.00;;
55134;SDS011;41031;44.750;11.308;2022-10-16T15:18:08;9.73;;;7.00;;
55134;SDS011;41031;44.750;11.308;2022-10-16T15:20:35;13.13;;;7.40;;
55134;SDS011;41031;44.750;11.308;2022-10-16T15:23:14;10.97;;;7.63;;
55134;SDS011;41031;44.750;11.308;2022-10-16T15:25:47;11.77;;;7.53;;
55134;SDS011;41031;44.750;11.308;2022-10-16T15:28:21;9.93;;;6.27;;
55134;SDS011;41031;44.750;11.308;2022-10-16T15:30:50;7.37;;;6.67;;
55134;SDS011;41031;44.750;11.308;2022-10-16T15:33:20;10.63;;;6.60;;
55134;SDS011;41031;44.750;11.308;2022-10-16T15:35:49;12.40;;;7.07;;
55134;SDS011;41031;44.750;11.308;2022-10-16T15:38:18;8.03;;;6.57;;
55134;SDS011;41031;44.750;11.308;2022-10-16T15:40:47;12.10;;;8.40;;
55134;SDS011;41031;44.750;11.308;2022-10-16T15:43:14;7.60;;;6.90;;
55134;SDS011;41031;44.750;11.308;2022-10-16T15:45:42;8.43;;;7.43;;
55134;SDS011;41031;44.750;11.308;2022-10-16T15:48:12;9.97;;;8.13;;
55134;SDS011;41031;44.750;11.308;2022-10-16T15:50:40;9.97;;;7.83;;
55134;SDS011;41031;44.750;11.308;2022-10-16T15:53:09;11.43;;;7.87;;
55134;SDS011;41031;44.750;11.308;2022-10-16T15:55:36;9.20;;;8.20;;
55134;SDS011;41031;44.750;11.308;2022-10-16T15:58:04;10.97;;;8.47;;
55134;SDS011;41031;44.750;11.308;2022-10-16T16:00:31;9.97;;;7.53;;
55134;SDS011;41031;44.750;11.308;2022-10-16T16:02:58;8.93;;;8.13;;
55134;SDS011;41031;44.750;11.308;2022-10-16T16:05:25;8.70;;;7.67;;
55134;SDS011;41031;44.750;11.308;2022-10-16T16:07:53;10.60;;;8.07;;
55134;SDS011;41031;44.750;11.308;2022-10-16T16:10:20;10.67;;;7.37;;
55134;SDS011;41031;44.750;11.308;2022-10-16T16:12:48;10.50;;;7.23;;
55134;SDS011;41031;44.750;11.308;2022-10-16T16:15:21;9.70;;;7.40;;
55134;SDS011;41031;44.750;11.308;2022-10-16T16:17:48;11.70;;;7.47;;
55134;SDS011;41031;44.750;11.308;2022-10-16T16:20:15;9.77;;;7.07;;
55134;SDS011;41031;44.750;11.308;2022-10-16T16:22:43;10.40;;;7.40;;
55134;SDS011;41031;44.750;11.308;2022-10-16T16:25:10;10.77;;;7.50;;
55134;SDS011;41031;44.750;11.308;2022-10-16T16:27:37;9.53;;;7.60;;
55134;SDS011;41031;44.750;11.308;2022-10-16T16:30:09;8.73;;;7.73;;
55134;SDS011;41031;44.750;11.308;2022-10-16T16:32:45;13.70;;;8.47;;
55134;SDS011;41031;44.750;11.308;2022-10-16T16:35:12;12.77;;;7.70;;
55134;SDS011;41031;44.750;11.308;2022-10-16T16:37:39;12.87;;;7.70;;